createdAt,value
2017-12-12T00:00:23.733Z,4.60
2017-12-12T00:02:51.189Z,4.87
2017-12-12T00:05:18.765Z,4.50
2017-12-12T00:07:46.217Z,4.80
2017-12-12T00:10:13.678Z,5.13
2017-12-12T00:12:41.161Z,4.40
2017-12-12T00:15:08.628Z,4.97
2017-12-12T00:17:36.102Z,4.53
2017-12-12T00:20:03.612Z,4.83
2017-12-12T00:22:43.068Z,4.70
2017-12-12T00:25:10.659Z,4.63
2017-12-12T00:27:38.106Z,5.00
2017-12-12T00:30:05.561Z,4.60
2017-12-12T00:32:33.056Z,4.73
2017-12-12T00:35:00.508Z,4.73
2017-12-12T00:37:27.983Z,4.83
2017-12-12T00:39:55.453Z,4.97
2017-12-12T00:42:22.925Z,4.50
2017-12-12T00:44:50.381Z,4.67
2017-12-12T00:47:17.857Z,4.40
2017-12-12T00:49:45.321Z,4.83
2017-12-12T00:52:12.811Z,4.70
2017-12-12T00:54:41.141Z,4.53
2017-12-12T00:57:08.613Z,4.60
2017-12-12T00:59:36.135Z,4.70
2017-12-12T01:02:03.650Z,4.80
2017-12-12T01:04:31.084Z,4.83
2017-12-12T01:06:58.557Z,4.90
2017-12-12T01:09:26.105Z,4.37
2017-12-12T01:11:53.581Z,5.03
2017-12-12T01:14:21.085Z,4.87
2017-12-12T01:16:48.561Z,5.23
2017-12-12T01:19:16.017Z,5.10
2017-12-12T01:21:43.496Z,5.03
2017-12-12T01:24:10.953Z,4.93
2017-12-12T01:26:38.432Z,4.97
2017-12-12T01:31:56.325Z,5.17
2017-12-12T01:34:23.781Z,4.70
2017-12-12T01:36:51.249Z,4.40
2017-12-12T01:39:18.705Z,4.40
2017-12-12T01:41:46.174Z,4.10
2017-12-12T01:44:13.632Z,4.60
2017-12-12T01:46:41.105Z,4.20
2017-12-12T01:49:08.560Z,4.10
2017-12-12T01:51:36.032Z,5.00
2017-12-12T01:54:03.484Z,4.60
2017-12-12T01:56:30.976Z,4.70
2017-12-12T01:58:58.433Z,4.50
2017-12-12T02:01:25.910Z,4.50
2017-12-12T02:03:53.365Z,4.47
2017-12-12T02:06:20.930Z,4.40
2017-12-12T02:08:48.393Z,4.93
2017-12-12T02:11:15.953Z,5.13
2017-12-12T02:13:43.422Z,4.93
2017-12-12T02:16:10.892Z,5.00
2017-12-12T02:18:38.345Z,4.47
2017-12-12T02:21:05.813Z,4.70
2017-12-12T02:23:33.264Z,4.50
2017-12-12T02:26:00.739Z,4.70
2017-12-12T02:28:28.194Z,4.50
2017-12-12T02:30:55.665Z,4.57
2017-12-12T02:33:23.125Z,4.73
2017-12-12T02:35:50.578Z,4.83
2017-12-12T02:38:18.053Z,4.73
2017-12-12T02:40:45.509Z,4.63
2017-12-12T02:43:13.065Z,4.63
2017-12-12T02:45:40.522Z,4.80
2017-12-12T02:48:07.993Z,4.30
2017-12-12T02:50:35.449Z,4.80
2017-12-12T02:53:02.925Z,4.73
2017-12-12T02:55:30.382Z,4.83
2017-12-12T02:57:57.864Z,4.57
2017-12-12T03:00:25.321Z,4.30
2017-12-12T03:02:52.790Z,5.10
2017-12-12T03:05:20.245Z,4.63
2017-12-12T03:07:47.717Z,4.67
2017-12-12T03:10:15.164Z,4.90
2017-12-12T03:12:42.637Z,4.40
2017-12-12T03:15:10.089Z,4.80
2017-12-12T03:17:37.567Z,4.40
2017-12-12T03:20:05.025Z,4.37
2017-12-12T03:22:32.492Z,4.83
2017-12-12T03:24:59.977Z,5.00
2017-12-12T03:27:27.449Z,4.63
2017-12-12T03:29:54.909Z,4.63
2017-12-12T03:32:22.380Z,4.53
2017-12-12T03:34:49.837Z,4.20
2017-12-12T03:37:17.315Z,4.30
2017-12-12T03:39:44.773Z,4.40
2017-12-12T03:42:12.252Z,4.80
2017-12-12T03:44:39.712Z,4.93
2017-12-12T03:47:07.180Z,5.10
2017-12-12T03:49:34.642Z,4.37
2017-12-12T03:52:02.117Z,5.30
2017-12-12T03:54:29.573Z,4.87
2017-12-12T03:56:57.040Z,4.40
2017-12-12T03:59:24.501Z,4.60
2017-12-12T04:01:51.973Z,4.50
2017-12-12T04:04:19.438Z,4.50
2017-12-12T04:06:46.905Z,4.70
2017-12-12T04:09:14.406Z,4.73
2017-12-12T04:11:41.869Z,4.40
2017-12-12T04:14:09.349Z,5.17
2017-12-12T04:16:36.804Z,4.47
2017-12-12T04:19:04.278Z,4.47
2017-12-12T04:21:31.736Z,4.33
2017-12-12T04:23:59.209Z,4.30
2017-12-12T04:26:26.668Z,4.20
2017-12-12T04:28:54.145Z,4.30
2017-12-12T04:31:21.600Z,4.40
2017-12-12T04:33:49.083Z,4.87
2017-12-12T04:36:16.540Z,4.20
2017-12-12T04:38:44.100Z,4.47
2017-12-12T04:41:11.554Z,4.13
2017-12-12T04:43:39.026Z,5.10
2017-12-12T04:46:06.491Z,4.20
2017-12-12T04:48:33.966Z,4.10
2017-12-12T04:51:01.437Z,4.40
2017-12-12T04:53:28.921Z,4.23
2017-12-12T04:55:56.378Z,4.50
2017-12-12T04:58:23.853Z,4.30
2017-12-12T05:00:51.310Z,4.30
2017-12-12T05:03:18.875Z,4.73
2017-12-12T05:05:46.336Z,4.40
2017-12-12T05:08:13.809Z,4.40
2017-12-12T05:10:41.269Z,4.47
2017-12-12T05:13:08.749Z,4.40
2017-12-12T05:15:36.200Z,4.60
2017-12-12T05:18:03.677Z,4.40
2017-12-12T05:20:31.129Z,5.03
2017-12-12T05:22:58.596Z,5.03
2017-12-12T05:25:26.049Z,4.10
2017-12-12T05:27:53.521Z,4.77
2017-12-12T05:30:21.005Z,4.60
2017-12-12T05:32:48.485Z,4.90
2017-12-12T05:35:15.937Z,5.07
2017-12-12T05:37:43.413Z,5.00
2017-12-12T05:40:10.874Z,5.13
2017-12-12T05:42:38.344Z,5.00
2017-12-12T05:45:05.807Z,5.60
2017-12-12T05:47:33.258Z,5.30
2017-12-12T05:50:00.736Z,5.90
2017-12-12T05:52:28.225Z,5.20
2017-12-12T05:54:55.697Z,5.00
2017-12-12T05:57:23.161Z,5.40
2017-12-12T05:59:50.697Z,5.00
2017-12-12T06:02:18.149Z,4.83
2017-12-12T06:04:45.616Z,4.90
2017-12-12T06:07:13.158Z,4.90
2017-12-12T06:09:40.632Z,4.50
2017-12-12T06:12:08.093Z,5.17
2017-12-12T06:14:35.583Z,4.97
2017-12-12T06:17:03.045Z,5.17
2017-12-12T06:19:30.559Z,5.10
2017-12-12T06:21:58.017Z,4.80
2017-12-12T06:24:25.493Z,5.43
2017-12-12T06:26:52.953Z,5.30
2017-12-12T06:29:20.429Z,5.13
2017-12-12T06:31:47.889Z,5.00
2017-12-12T06:34:15.408Z,4.90
2017-12-12T06:36:42.884Z,5.10
2017-12-12T06:39:10.359Z,5.83
2017-12-12T06:41:38.040Z,5.63
2017-12-12T06:44:05.512Z,5.60
2017-12-12T06:46:32.974Z,4.90
2017-12-12T06:49:00.448Z,5.20
2017-12-12T06:51:27.905Z,5.30
2017-12-12T06:53:55.378Z,5.87
2017-12-12T06:56:22.841Z,5.30
2017-12-12T06:58:50.320Z,5.40
2017-12-12T07:01:17.768Z,5.63
2017-12-12T07:03:45.241Z,5.77
2017-12-12T07:06:12.692Z,6.33
2017-12-12T07:08:40.169Z,6.40
2017-12-12T07:11:07.674Z,5.90
2017-12-12T07:13:35.153Z,6.20
2017-12-12T07:16:02.610Z,5.83
2017-12-12T07:18:30.092Z,5.83
2017-12-12T07:20:57.544Z,6.37
2017-12-12T07:23:25.024Z,5.83
2017-12-12T07:25:52.481Z,6.57
2017-12-12T07:28:19.957Z,6.07
2017-12-12T07:30:47.420Z,6.17
2017-12-12T07:33:14.912Z,5.93
2017-12-12T07:35:42.373Z,5.63
2017-12-12T07:38:09.853Z,5.60
2017-12-12T07:40:37.305Z,6.40
2017-12-12T07:43:04.772Z,6.07
2017-12-12T07:45:32.232Z,5.80
2017-12-12T07:47:59.709Z,5.47
2017-12-12T07:50:27.176Z,5.73
2017-12-12T07:52:54.644Z,5.80
2017-12-12T07:55:22.102Z,5.90
2017-12-12T07:57:49.573Z,5.97
2017-12-12T08:00:17.037Z,6.03
2017-12-12T08:02:44.496Z,6.20
2017-12-12T08:05:12.006Z,6.00
2017-12-12T08:07:39.460Z,6.40
2017-12-12T08:10:06.937Z,6.13
2017-12-12T08:12:34.397Z,6.30
2017-12-12T08:15:01.870Z,6.50
2017-12-12T08:17:29.339Z,5.97
2017-12-12T08:19:56.819Z,6.00
2017-12-12T08:22:24.272Z,6.10
2017-12-12T08:24:51.749Z,5.83
2017-12-12T08:27:19.200Z,6.23
2017-12-12T08:29:46.656Z,5.80
2017-12-12T08:32:14.129Z,6.03
2017-12-12T08:34:41.581Z,7.33
2017-12-12T08:37:09.061Z,6.27
2017-12-12T08:39:36.517Z,7.07
2017-12-12T08:42:03.997Z,5.73
2017-12-12T08:44:31.448Z,6.07
2017-12-12T08:46:59.022Z,5.50
2017-12-12T08:49:26.481Z,6.20
2017-12-12T08:51:53.957Z,6.20
2017-12-12T08:54:21.421Z,6.33
2017-12-12T08:56:48.889Z,5.60
2017-12-12T08:59:16.344Z,5.57
2017-12-12T09:01:43.825Z,5.80
2017-12-12T09:04:11.284Z,5.70
2017-12-12T09:06:38.756Z,5.37
2017-12-12T09:09:06.210Z,5.47
2017-12-12T09:11:33.680Z,5.57
2017-12-12T09:14:01.137Z,5.83
2017-12-12T09:16:28.613Z,5.90
2017-12-12T09:18:56.081Z,5.10
2017-12-12T09:21:23.627Z,5.73
2017-12-12T09:23:51.085Z,5.40
2017-12-12T09:26:18.561Z,5.73
2017-12-12T09:28:46.029Z,5.90
2017-12-12T09:31:13.501Z,5.73
2017-12-12T09:33:40.957Z,5.90
2017-12-12T09:36:08.413Z,6.00
2017-12-12T09:38:35.883Z,6.00
2017-12-12T09:41:03.341Z,5.77
2017-12-12T09:43:30.813Z,5.90
2017-12-12T09:45:58.277Z,7.00
2017-12-12T09:48:25.749Z,6.13
2017-12-12T09:50:53.200Z,6.20
2017-12-12T09:53:20.670Z,5.97
2017-12-12T09:55:48.133Z,6.40
2017-12-12T09:58:15.613Z,6.93
2017-12-12T10:00:43.064Z,5.97
2017-12-12T10:03:10.540Z,5.87
2017-12-12T10:05:38.008Z,5.80
2017-12-12T10:08:05.481Z,6.27
2017-12-12T10:10:32.933Z,5.57
2017-12-12T10:13:00.401Z,5.90
2017-12-12T10:15:27.856Z,5.67
2017-12-12T10:17:55.333Z,6.07
2017-12-12T10:20:22.788Z,6.60
2017-12-12T10:22:50.265Z,6.13
2017-12-12T10:25:17.721Z,5.70
2017-12-12T10:27:45.197Z,5.83
2017-12-12T10:30:12.666Z,5.97
2017-12-12T10:32:40.138Z,5.73
2017-12-12T10:35:07.589Z,6.13
2017-12-12T10:37:35.058Z,5.53
2017-12-12T10:40:02.509Z,5.70
2017-12-12T10:42:29.981Z,5.60
2017-12-12T10:44:57.447Z,6.13
2017-12-12T10:47:24.967Z,5.67
2017-12-12T10:49:52.425Z,5.97
2017-12-12T10:52:19.901Z,5.77
2017-12-12T10:54:47.362Z,6.13
2017-12-12T10:57:14.831Z,5.97
2017-12-12T10:59:42.294Z,5.40
2017-12-12T11:02:09.769Z,5.50
2017-12-12T11:04:37.224Z,5.47
2017-12-12T11:07:04.696Z,5.40
2017-12-12T11:09:32.153Z,5.50
2017-12-12T11:11:59.604Z,5.33
2017-12-12T11:14:27.085Z,6.00
2017-12-12T11:16:54.537Z,5.43
2017-12-12T11:19:22.013Z,5.60
2017-12-12T11:21:49.473Z,5.67
2017-12-12T11:24:16.949Z,5.40
2017-12-12T11:26:44.400Z,5.40
2017-12-12T11:29:11.878Z,5.17
2017-12-12T11:31:39.331Z,6.20
2017-12-12T11:34:06.805Z,5.63
2017-12-12T11:36:34.272Z,5.50
2017-12-12T11:39:01.743Z,5.97
2017-12-12T11:41:29.214Z,6.20
2017-12-12T11:43:56.701Z,6.23
2017-12-12T11:46:24.161Z,6.20
2017-12-12T11:48:51.641Z,6.50
2017-12-12T11:51:19.097Z,6.20
2017-12-12T11:53:46.699Z,6.83
2017-12-12T11:56:14.156Z,6.50
2017-12-12T11:58:41.629Z,6.70
2017-12-12T12:01:09.080Z,6.40
2017-12-12T12:03:36.549Z,6.17
2017-12-12T12:06:04.005Z,7.30
2017-12-12T12:08:31.543Z,7.30
2017-12-12T12:10:58.998Z,7.53
2017-12-12T12:13:26.477Z,7.23
2017-12-12T12:15:53.937Z,6.73
2017-12-12T12:18:21.413Z,7.00
2017-12-12T12:20:48.872Z,7.93
2017-12-12T12:23:16.352Z,7.47
2017-12-12T12:25:43.804Z,8.23
2017-12-12T12:28:11.293Z,10.63
2017-12-12T12:30:38.758Z,7.73
2017-12-12T12:33:06.245Z,8.87
2017-12-12T12:35:33.701Z,8.10
2017-12-12T12:38:01.180Z,12.23
2017-12-12T12:40:28.634Z,9.07
2017-12-12T12:42:56.104Z,8.90
2017-12-12T12:45:23.568Z,11.03
2017-12-12T12:47:51.047Z,6.83
2017-12-12T12:50:18.511Z,8.60
2017-12-12T12:52:46.082Z,14.83
2017-12-12T12:55:13.544Z,15.90
2017-12-12T12:57:41.140Z,13.73
2017-12-12T13:00:08.742Z,8.47
2017-12-12T13:02:36.223Z,9.20
2017-12-12T13:05:03.684Z,9.77
2017-12-12T13:07:31.185Z,8.53
2017-12-12T13:09:58.645Z,8.50
2017-12-12T13:12:26.117Z,7.10
2017-12-12T13:14:53.588Z,8.07
2017-12-12T13:17:21.057Z,7.23
2017-12-12T13:19:48.512Z,7.20
2017-12-12T13:22:16.037Z,8.10
2017-12-12T13:24:43.488Z,8.40
2017-12-12T13:27:10.968Z,7.07
2017-12-12T13:29:38.420Z,7.20
2017-12-12T13:32:05.877Z,7.80
2017-12-12T13:34:33.345Z,7.63
2017-12-12T13:37:00.814Z,7.63
2017-12-12T13:39:28.293Z,7.73
2017-12-12T13:41:55.757Z,7.97
2017-12-12T13:44:23.232Z,8.13
2017-12-12T13:46:50.680Z,8.77
2017-12-12T13:49:18.166Z,11.83
2017-12-12T13:51:45.630Z,7.87
2017-12-12T13:54:13.117Z,14.93
2017-12-12T13:56:40.577Z,7.80
2017-12-12T13:59:08.057Z,9.90
2017-12-12T14:01:35.512Z,7.80
2017-12-12T14:04:02.991Z,9.97
2017-12-12T14:06:30.452Z,9.20
2017-12-12T14:08:57.931Z,9.60
2017-12-12T14:11:25.393Z,9.10
2017-12-12T14:13:52.869Z,8.83
2017-12-12T14:16:20.320Z,7.87
2017-12-12T14:18:47.801Z,9.50
2017-12-12T14:21:15.263Z,8.20
2017-12-12T14:23:42.720Z,7.93
2017-12-12T14:26:10.205Z,9.07
2017-12-12T14:28:37.665Z,7.90
2017-12-12T14:31:05.141Z,8.97
2017-12-12T14:33:32.596Z,7.87
2017-12-12T14:36:00.081Z,7.90
2017-12-12T14:38:27.553Z,7.40
2017-12-12T14:40:55.103Z,9.30
2017-12-12T14:43:22.570Z,12.67
2017-12-12T14:45:50.049Z,9.23
2017-12-12T14:48:17.509Z,9.60
2017-12-12T14:50:44.989Z,9.83
2017-12-12T14:53:12.469Z,11.20
2017-12-12T14:55:39.957Z,11.43
2017-12-12T14:58:08.351Z,10.37
2017-12-12T15:00:35.812Z,9.83
2017-12-12T15:03:03.293Z,9.23
2017-12-12T15:05:30.761Z,8.50
2017-12-12T15:07:58.237Z,8.30
2017-12-12T15:10:25.721Z,10.20
2017-12-12T15:12:53.193Z,8.30
2017-12-12T15:15:20.660Z,10.97
2017-12-12T15:17:48.140Z,9.53
2017-12-12T15:20:15.608Z,9.50
2017-12-12T15:22:43.085Z,9.60
2017-12-12T15:25:10.566Z,11.97
2017-12-12T15:27:38.048Z,10.97
2017-12-12T15:30:05.517Z,12.23
2017-12-12T15:32:33.002Z,13.90
2017-12-12T15:35:00.461Z,14.03
2017-12-12T15:37:27.940Z,18.80
2017-12-12T15:39:55.404Z,17.80
2017-12-12T15:42:22.895Z,13.93
2017-12-12T15:44:50.400Z,18.90
2017-12-12T15:47:17.869Z,14.17
2017-12-12T15:49:45.357Z,11.90
2017-12-12T15:52:12.820Z,11.70
2017-12-12T15:54:40.301Z,11.83
2017-12-12T15:57:07.764Z,19.13
2017-12-12T15:59:35.245Z,14.27
2017-12-12T16:02:02.713Z,22.10
2017-12-12T16:04:30.179Z,29.80
2017-12-12T16:06:57.662Z,19.57
2017-12-12T16:09:25.124Z,20.83
2017-12-12T16:11:52.719Z,17.00
2017-12-12T16:14:20.180Z,16.33
2017-12-12T16:16:47.668Z,20.13
2017-12-12T16:19:15.134Z,30.70
2017-12-12T16:21:42.597Z,18.27
2017-12-12T16:24:10.086Z,25.00
2017-12-12T16:26:37.575Z,18.57
2017-12-12T16:29:05.038Z,20.10
2017-12-12T16:31:32.525Z,22.27
2017-12-12T16:33:59.989Z,18.17
2017-12-12T16:36:27.453Z,17.17
2017-12-12T16:38:54.938Z,22.67
2017-12-12T16:41:22.404Z,15.23
2017-12-12T16:43:49.877Z,15.23
2017-12-12T16:46:17.364Z,13.73
2017-12-12T16:48:44.828Z,12.47
2017-12-12T16:51:12.293Z,12.47
2017-12-12T16:53:39.772Z,12.77
2017-12-12T16:56:07.237Z,15.20
2017-12-12T16:58:34.701Z,20.23
2017-12-12T17:01:02.189Z,16.47
2017-12-12T17:03:29.661Z,17.10
2017-12-12T17:05:57.133Z,12.77
2017-12-12T17:08:24.617Z,14.73
2017-12-12T17:10:52.106Z,12.27
2017-12-12T17:13:19.569Z,11.53
2017-12-12T17:15:47.079Z,12.30
2017-12-12T17:18:14.549Z,11.97
2017-12-12T17:20:42.033Z,12.47
2017-12-12T17:23:09.497Z,13.13
2017-12-12T17:25:37.078Z,12.03
2017-12-12T17:28:04.549Z,11.93
2017-12-12T17:30:32.012Z,12.43
2017-12-12T17:32:59.492Z,13.17
2017-12-12T17:35:26.961Z,12.90
2017-12-12T17:37:54.445Z,12.67
2017-12-12T17:40:21.909Z,11.47
2017-12-12T17:42:49.381Z,12.27
2017-12-12T17:45:16.861Z,12.17
2017-12-12T17:47:44.326Z,11.80
2017-12-12T17:50:11.814Z,11.93
2017-12-12T17:52:39.289Z,12.43
2017-12-12T17:55:06.810Z,12.37
2017-12-12T17:57:34.296Z,11.47
2017-12-12T18:00:01.776Z,11.80
2017-12-12T18:02:29.259Z,11.80
2017-12-12T18:04:56.727Z,12.23
2017-12-12T18:07:24.214Z,19.80
2017-12-12T18:09:51.681Z,13.80
2017-12-12T18:12:19.149Z,11.97
2017-12-12T18:14:46.629Z,13.80
2017-12-12T18:17:14.089Z,11.87
2017-12-12T18:19:41.573Z,13.73
2017-12-12T18:22:09.143Z,12.90
2017-12-12T18:24:36.608Z,12.47
2017-12-12T18:27:04.090Z,13.37
2017-12-12T18:29:31.552Z,14.63
2017-12-12T18:31:59.021Z,12.90
2017-12-12T18:34:26.509Z,15.90
2017-12-12T18:36:53.973Z,12.30
2017-12-12T18:39:21.446Z,12.53
2017-12-12T18:41:48.933Z,11.60
2017-12-12T18:44:16.400Z,11.90
2017-12-12T18:46:43.860Z,11.13
2017-12-12T18:49:11.345Z,11.83
2017-12-12T18:51:38.813Z,12.23
2017-12-12T18:54:06.277Z,11.57
2017-12-12T18:56:33.756Z,12.50
2017-12-12T18:59:01.216Z,12.20
2017-12-12T19:01:28.676Z,11.30
2017-12-12T19:03:56.157Z,12.10
2017-12-12T19:06:23.679Z,11.10
2017-12-12T19:08:51.240Z,11.13
2017-12-12T19:11:18.724Z,11.33
2017-12-12T19:13:46.247Z,11.10
2017-12-12T19:16:13.716Z,11.93
2017-12-12T19:18:41.197Z,10.70
2017-12-12T19:21:08.661Z,12.50
2017-12-12T19:23:36.124Z,10.77
2017-12-12T19:26:03.605Z,26.03
2017-12-12T19:28:31.068Z,10.77
2017-12-12T19:30:58.553Z,64.33
2017-12-12T19:33:26.077Z,42.27
2017-12-12T19:35:53.516Z,26.27
2017-12-12T19:38:21.006Z,14.83
2017-12-12T19:40:48.476Z,27.03
2017-12-12T19:43:15.956Z,21.27
2017-12-12T19:45:43.440Z,16.53
2017-12-12T19:48:10.925Z,15.23
2017-12-12T19:50:38.389Z,12.77
2017-12-12T19:53:05.853Z,12.77
2017-12-12T19:55:33.339Z,14.30
2017-12-12T19:58:00.800Z,15.40
2017-12-12T20:00:28.289Z,11.73
2017-12-12T20:02:55.747Z,16.33
2017-12-12T20:05:23.213Z,16.67
2017-12-12T20:07:50.725Z,29.73
2017-12-12T20:10:18.225Z,17.83
2017-12-12T20:12:45.709Z,12.57
2017-12-12T20:15:13.272Z,10.93
2017-12-12T20:17:40.789Z,12.13
2017-12-12T20:20:08.428Z,22.10
2017-12-12T20:22:35.921Z,13.03
2017-12-12T20:25:03.408Z,32.07
2017-12-12T20:27:30.868Z,47.03
2017-12-12T20:29:58.355Z,33.07
2017-12-12T20:32:25.845Z,24.73
2017-12-12T20:34:53.429Z,14.67
2017-12-12T20:37:20.953Z,14.67
2017-12-12T20:39:48.431Z,14.10
2017-12-12T20:42:15.945Z,16.10
2017-12-12T20:44:43.435Z,14.70
2017-12-12T20:47:10.933Z,17.47
2017-12-12T20:49:38.444Z,19.33
2017-12-12T20:52:05.937Z,20.27
2017-12-12T20:54:33.453Z,20.90
2017-12-12T20:57:00.892Z,22.20
2017-12-12T20:59:28.381Z,23.93
2017-12-12T21:01:55.861Z,21.00
2017-12-12T21:04:22.625Z,21.80
2017-12-12T21:06:50.108Z,23.03
2017-12-12T21:09:17.755Z,23.03
2017-12-12T21:11:45.236Z,22.00
2017-12-12T21:14:12.725Z,21.40
2017-12-12T21:16:40.204Z,21.73
2017-12-12T21:19:07.701Z,20.97
2017-12-12T21:21:35.185Z,20.33
2017-12-12T21:24:02.644Z,19.37
2017-12-12T21:26:30.109Z,18.90
2017-12-12T21:28:57.592Z,17.97
2017-12-12T21:31:25.968Z,18.60
2017-12-12T21:33:53.436Z,20.03
2017-12-12T21:36:20.917Z,18.77
2017-12-12T21:38:48.381Z,19.50
2017-12-12T21:41:15.939Z,18.10
2017-12-12T21:43:43.425Z,17.63
2017-12-12T21:46:10.901Z,17.43
2017-12-12T21:48:38.382Z,16.63
2017-12-12T21:51:05.875Z,16.47
2017-12-12T21:53:33.349Z,18.30
2017-12-12T21:56:00.813Z,20.87
2017-12-12T21:58:28.305Z,22.50
2017-12-12T22:00:55.769Z,23.83
2017-12-12T22:03:23.246Z,38.10
2017-12-12T22:05:50.737Z,31.23
2017-12-12T22:08:18.201Z,25.63
2017-12-12T22:10:45.684Z,48.80
2017-12-12T22:13:13.174Z,40.83
2017-12-12T22:15:40.642Z,29.47
2017-12-12T22:18:08.129Z,19.37
2017-12-12T22:20:35.600Z,19.10
2017-12-12T22:23:03.093Z,17.30
2017-12-12T22:25:30.566Z,16.83
2017-12-12T22:27:58.042Z,16.80
2017-12-12T22:30:25.539Z,17.57
2017-12-12T22:32:53.004Z,19.03
2017-12-12T22:35:20.493Z,17.33
2017-12-12T22:37:47.965Z,22.10
2017-12-12T22:40:15.438Z,17.27
2017-12-12T22:42:42.922Z,16.80
2017-12-12T22:45:10.397Z,18.90
2017-12-12T22:47:37.880Z,17.43
2017-12-12T22:50:05.344Z,19.90
2017-12-12T22:52:32.817Z,22.30
2017-12-12T22:55:00.325Z,20.17
2017-12-12T22:57:27.796Z,17.13
2017-12-12T22:59:55.282Z,37.87
2017-12-12T23:02:22.857Z,39.90
2017-12-12T23:04:50.345Z,57.67
2017-12-12T23:07:17.817Z,65.50
2017-12-12T23:09:45.325Z,29.10
2017-12-12T23:12:12.805Z,35.50
2017-12-12T23:14:40.278Z,28.37
2017-12-12T23:17:07.771Z,28.87
2017-12-12T23:19:35.258Z,27.03
2017-12-12T23:22:02.749Z,31.13
2017-12-12T23:24:30.216Z,21.13
2017-12-12T23:26:57.734Z,20.20
2017-12-12T23:29:25.250Z,21.77
2017-12-12T23:31:52.740Z,23.83
2017-12-12T23:34:20.211Z,22.93
2017-12-12T23:36:47.697Z,21.83
2017-12-12T23:39:15.165Z,19.97
2017-12-12T23:41:42.634Z,22.43
2017-12-12T23:44:10.129Z,20.93
2017-12-12T23:46:37.594Z,21.93
2017-12-12T23:49:05.082Z,22.10
2017-12-12T23:51:32.564Z,23.40
2017-12-12T23:54:00.070Z,22.37
2017-12-12T23:56:27.541Z,21.37
2017-12-12T23:58:55.024Z,22.17
